createdAt,value
2023-05-15T00:00:33.726Z,72.40
2023-05-15T00:03:13.476Z,73.06
2023-05-15T00:05:53.774Z,73.11
2023-05-15T00:08:33.102Z,73.67
2023-05-15T00:11:17.570Z,73.69
2023-05-15T00:13:56.957Z,73.08
2023-05-15T00:16:36.356Z,72.80
2023-05-15T00:19:15.842Z,73.02
2023-05-15T00:21:55.267Z,73.13
2023-05-15T00:24:34.583Z,73.57
2023-05-15T00:30:04.067Z,74.22
2023-05-15T00:32:43.386Z,74.49
2023-05-15T00:35:23.004Z,74.44
2023-05-15T00:38:02.478Z,73.36
2023-05-15T00:40:43.832Z,73.60
2023-05-15T00:43:30.032Z,73.81
2023-05-15T00:46:11.414Z,73.70
2023-05-15T00:48:51.529Z,73.97
2023-05-15T00:51:30.885Z,74.17
2023-05-15T00:54:11.084Z,74.52
2023-05-15T00:56:52.224Z,74.56
2023-05-15T00:59:39.062Z,74.82
2023-05-15T01:02:19.665Z,75.09
2023-05-15T01:04:59.376Z,74.62
2023-05-15T01:07:42.690Z,74.29
2023-05-15T01:10:25.334Z,74.52
2023-05-15T01:13:05.710Z,74.61
2023-05-15T01:15:51.186Z,74.51
2023-05-15T01:18:33.655Z,74.68
2023-05-15T01:21:42.126Z,75.06
2023-05-15T01:24:42.033Z,75.15
2023-05-15T01:27:37.648Z,75.41
2023-05-15T01:30:25.520Z,75.66
2023-05-15T01:33:13.892Z,76.16
2023-05-15T01:36:00.402Z,76.38
2023-05-15T01:38:46.170Z,76.75
2023-05-15T01:41:34.116Z,77.31
2023-05-15T01:44:26.376Z,77.24
2023-05-15T01:47:09.121Z,77.11
2023-05-15T01:49:52.230Z,77.10
2023-05-15T01:52:38.282Z,76.89
2023-05-15T01:55:18.235Z,76.84
2023-05-15T01:57:59.608Z,77.55
2023-05-15T02:00:45.929Z,77.18
2023-05-15T02:03:27.317Z,77.06
2023-05-15T02:06:07.843Z,76.67
2023-05-15T02:08:49.402Z,76.64
2023-05-15T02:11:28.689Z,76.56
2023-05-15T02:14:09.820Z,76.25
2023-05-15T02:16:54.335Z,75.93
2023-05-15T02:19:33.757Z,75.95
2023-05-15T02:22:13.140Z,76.00
2023-05-15T02:24:52.583Z,75.73
2023-05-15T02:27:35.161Z,75.57
2023-05-15T02:30:30.741Z,75.15
2023-05-15T02:33:26.710Z,74.99
2023-05-15T02:36:12.547Z,75.18
2023-05-15T02:38:55.719Z,75.26
2023-05-15T02:41:36.954Z,75.37
2023-05-15T02:44:19.362Z,75.53
2023-05-15T02:47:00.797Z,75.73
2023-05-15T02:49:47.031Z,75.64
2023-05-15T02:52:26.484Z,75.33
2023-05-15T02:55:05.810Z,75.18
2023-05-15T02:57:45.064Z,75.60
2023-05-15T03:00:24.829Z,75.72
2023-05-15T03:03:04.233Z,75.45
2023-05-15T03:05:48.779Z,74.78
2023-05-15T03:08:28.515Z,74.55
2023-05-15T03:11:07.820Z,74.41
2023-05-15T03:13:47.128Z,74.50
2023-05-15T03:16:26.447Z,74.77
2023-05-15T03:19:05.909Z,75.02
2023-05-15T03:21:50.288Z,75.02
2023-05-15T03:24:29.598Z,75.00
2023-05-15T03:27:08.897Z,74.95
2023-05-15T03:29:50.277Z,74.95
2023-05-15T03:32:29.610Z,75.01
2023-05-15T03:35:08.969Z,75.12
2023-05-15T03:37:53.325Z,75.10
2023-05-15T03:40:32.596Z,75.31
2023-05-15T03:43:11.913Z,75.67
2023-05-15T03:45:51.727Z,75.18
2023-05-15T03:48:31.005Z,75.64
2023-05-15T03:51:10.745Z,75.54
2023-05-15T03:53:55.216Z,75.63
2023-05-15T03:56:34.591Z,75.53
2023-05-15T03:59:14.292Z,75.78
2023-05-15T04:02:04.218Z,75.87
2023-05-15T04:04:45.883Z,75.62
2023-05-15T04:07:25.414Z,75.60
2023-05-15T04:10:10.398Z,75.03
2023-05-15T04:12:49.685Z,74.25
2023-05-15T04:15:31.587Z,74.12
2023-05-15T04:18:10.999Z,75.04
2023-05-15T04:20:50.311Z,76.04
2023-05-15T04:23:31.634Z,76.13
2023-05-15T04:26:16.399Z,76.29
2023-05-15T04:29:03.870Z,76.88
2023-05-15T04:31:43.968Z,76.91
2023-05-15T04:34:23.845Z,76.51
2023-05-15T04:37:03.189Z,76.59
2023-05-15T04:39:42.479Z,76.67
2023-05-15T04:42:27.864Z,76.76
2023-05-15T04:45:07.744Z,76.49
2023-05-15T04:47:47.281Z,76.09
2023-05-15T04:50:26.917Z,75.92
2023-05-15T04:53:06.286Z,75.61
2023-05-15T04:55:45.582Z,75.67
2023-05-15T04:58:29.930Z,75.76
2023-05-15T05:01:09.372Z,75.78
2023-05-15T05:03:48.796Z,75.89
2023-05-15T05:06:30.378Z,76.10
2023-05-15T05:09:10.054Z,75.72
2023-05-15T05:11:49.714Z,75.98
2023-05-15T05:14:34.590Z,75.84
2023-05-15T05:17:13.869Z,75.90
2023-05-15T05:19:53.148Z,76.09
2023-05-15T05:22:32.727Z,76.32
2023-05-15T05:25:13.092Z,76.59
2023-05-15T05:27:52.429Z,76.84
2023-05-15T05:30:37.430Z,76.44
2023-05-15T05:33:17.490Z,76.77
2023-05-15T05:35:57.841Z,76.20
2023-05-15T05:38:37.663Z,76.33
2023-05-15T05:41:17.368Z,76.33
2023-05-15T05:43:56.758Z,76.00
2023-05-15T05:46:41.335Z,75.69
2023-05-15T05:49:20.801Z,75.91
2023-05-15T05:52:00.240Z,75.86
2023-05-15T05:54:39.500Z,75.82
2023-05-15T05:57:18.946Z,75.78
2023-05-15T05:59:58.368Z,76.29
2023-05-15T06:02:43.088Z,76.24
2023-05-15T06:05:22.485Z,76.68
2023-05-15T06:08:05.276Z,77.00
2023-05-15T06:10:44.772Z,76.51
2023-05-15T06:13:24.274Z,76.36
2023-05-15T06:16:03.533Z,76.25
2023-05-15T06:18:47.869Z,75.36
2023-05-15T06:21:27.448Z,75.77
2023-05-15T06:24:06.755Z,74.90
2023-05-15T06:26:52.337Z,75.13
2023-05-15T06:29:32.046Z,75.09
2023-05-15T06:32:12.041Z,74.73
2023-05-15T06:34:56.426Z,74.01
2023-05-15T06:37:35.843Z,73.22
2023-05-15T06:40:16.584Z,72.71
2023-05-15T06:42:55.868Z,72.72
2023-05-15T06:45:35.241Z,72.11
2023-05-15T06:48:14.595Z,71.79
2023-05-15T06:50:59.013Z,72.12
2023-05-15T06:53:38.249Z,72.07
2023-05-15T06:56:17.574Z,71.82
2023-05-15T06:58:57.918Z,71.34
2023-05-15T07:01:39.616Z,71.45
2023-05-15T07:04:19.029Z,71.27
2023-05-15T07:07:03.396Z,70.40
2023-05-15T07:09:42.724Z,69.97
2023-05-15T07:12:22.245Z,69.38
2023-05-15T07:15:01.559Z,69.11
2023-05-15T07:17:41.287Z,69.85
2023-05-15T07:20:20.591Z,69.59
2023-05-15T07:23:04.947Z,69.26
2023-05-15T07:25:45.908Z,68.44
2023-05-15T07:28:25.360Z,68.95
2023-05-15T07:31:04.638Z,67.57
2023-05-15T07:33:43.927Z,66.84
2023-05-15T07:36:23.160Z,68.07
2023-05-15T07:39:07.477Z,67.26
2023-05-15T07:41:48.154Z,66.73
2023-05-15T07:44:27.455Z,65.95
2023-05-15T07:47:06.980Z,65.72
2023-05-15T07:49:46.230Z,65.74
2023-05-15T07:52:25.500Z,65.12
2023-05-15T07:55:10.026Z,64.08
2023-05-15T07:57:53.608Z,63.45
2023-05-15T08:00:33.360Z,62.94
2023-05-15T08:03:12.905Z,63.28
2023-05-15T08:05:53.067Z,63.40
2023-05-15T08:08:32.510Z,64.01
2023-05-15T08:11:16.897Z,62.87
2023-05-15T08:13:56.251Z,61.67
2023-05-15T08:16:35.615Z,62.39
2023-05-15T08:19:14.909Z,61.38
2023-05-15T08:21:54.186Z,60.27
2023-05-15T08:24:33.419Z,59.70
2023-05-15T08:27:18.047Z,60.46
2023-05-15T08:29:57.357Z,59.90
2023-05-15T08:32:36.684Z,59.22
2023-05-15T08:35:16.176Z,60.39
2023-05-15T08:37:55.475Z,59.23
2023-05-15T08:40:39.832Z,59.22
2023-05-15T08:43:26.005Z,58.83
2023-05-15T08:46:05.658Z,58.34
2023-05-15T08:48:46.681Z,58.80
2023-05-15T08:51:27.415Z,57.37
2023-05-15T08:54:07.157Z,56.50
2023-05-15T08:56:46.646Z,55.74
2023-05-15T08:59:31.861Z,55.49
2023-05-15T09:02:11.284Z,56.03
2023-05-15T09:04:50.591Z,54.92
2023-05-15T09:07:30.389Z,54.59
2023-05-15T09:10:11.345Z,53.52
2023-05-15T09:12:52.126Z,53.71
2023-05-15T09:15:38.605Z,52.98
2023-05-15T09:18:18.768Z,52.48
2023-05-15T09:20:58.012Z,52.10
2023-05-15T09:23:37.247Z,52.71
2023-05-15T09:26:19.684Z,51.64
2023-05-15T09:28:59.490Z,50.42
2023-05-15T09:31:43.988Z,50.52
2023-05-15T09:34:24.373Z,49.46
2023-05-15T09:37:03.729Z,48.47
2023-05-15T09:39:48.766Z,45.32
2023-05-15T09:42:28.159Z,43.90
2023-05-15T09:45:07.673Z,45.06
2023-05-15T09:47:53.253Z,45.16
2023-05-15T09:50:42.131Z,43.07
2023-05-15T09:53:21.874Z,46.15
2023-05-15T09:56:01.431Z,45.62
2023-05-15T09:58:42.598Z,45.91
2023-05-15T10:01:27.564Z,44.43
2023-05-15T10:04:13.996Z,45.13
2023-05-15T10:06:54.845Z,46.22
2023-05-15T10:09:37.954Z,46.16
2023-05-15T10:12:17.515Z,44.71
2023-05-15T10:14:58.464Z,44.00
2023-05-15T10:17:42.117Z,43.68
2023-05-15T10:20:28.433Z,43.09
2023-05-15T10:23:10.552Z,42.37
2023-05-15T10:25:57.763Z,43.04
2023-05-15T10:28:38.580Z,42.42
2023-05-15T10:31:19.125Z,42.85
2023-05-15T10:34:00.163Z,43.03
2023-05-15T10:36:45.648Z,41.67
2023-05-15T10:39:25.418Z,40.47
2023-05-15T10:42:07.457Z,39.90
2023-05-15T10:44:46.741Z,38.47
2023-05-15T10:47:26.157Z,40.98
2023-05-15T10:50:06.307Z,39.80
2023-05-15T10:52:50.928Z,41.11
2023-05-15T10:55:30.721Z,35.93
2023-05-15T10:58:15.616Z,37.66
2023-05-15T11:00:55.257Z,40.19
2023-05-15T11:03:49.402Z,36.24
2023-05-15T11:06:37.116Z,35.93
2023-05-15T11:09:49.269Z,36.36
2023-05-15T11:12:28.884Z,34.93
2023-05-15T11:15:27.340Z,32.49
2023-05-15T11:18:14.009Z,32.34
2023-05-15T11:21:15.420Z,33.12
2023-05-15T11:23:54.762Z,33.33
2023-05-15T11:26:49.992Z,34.80
2023-05-15T11:29:30.865Z,35.71
2023-05-15T11:32:10.285Z,38.50
2023-05-15T11:34:49.797Z,39.59
2023-05-15T11:37:31.919Z,39.81
2023-05-15T11:40:13.737Z,40.37
2023-05-15T11:43:25.918Z,41.15
2023-05-15T11:46:11.447Z,40.51
2023-05-15T11:48:52.811Z,40.84
2023-05-15T11:51:34.331Z,40.99
2023-05-15T11:54:13.845Z,41.82
2023-05-15T11:56:53.127Z,41.67
2023-05-15T11:59:41.551Z,41.72
2023-05-15T12:02:22.064Z,41.01
2023-05-15T12:05:01.407Z,41.08
2023-05-15T12:07:45.514Z,40.32
2023-05-15T12:10:25.191Z,40.29
2023-05-15T12:13:06.550Z,40.34
2023-05-15T12:15:52.980Z,40.44
2023-05-15T12:18:33.071Z,41.44
2023-05-15T12:21:12.463Z,41.38
2023-05-15T12:24:07.571Z,41.48
2023-05-15T12:26:47.908Z,41.53
2023-05-15T12:29:27.524Z,40.93
2023-05-15T12:32:13.230Z,41.32
2023-05-15T12:34:53.316Z,41.09
2023-05-15T12:37:32.985Z,40.10
2023-05-15T12:40:16.030Z,37.95
2023-05-15T12:43:01.148Z,37.13
2023-05-15T12:45:41.944Z,36.37
2023-05-15T12:48:29.898Z,35.67
2023-05-15T12:51:16.828Z,36.97
2023-05-15T12:53:57.943Z,37.42
2023-05-15T12:56:37.440Z,36.07
2023-05-15T12:59:17.722Z,36.94
2023-05-15T13:01:58.110Z,36.72
2023-05-15T13:04:45.885Z,36.33
2023-05-15T13:07:25.293Z,36.50
2023-05-15T13:10:13.180Z,35.92
2023-05-15T13:12:53.695Z,36.03
2023-05-15T13:15:37.603Z,35.29
2023-05-15T13:18:18.709Z,36.08
2023-05-15T13:21:03.172Z,36.45
2023-05-15T13:23:42.484Z,36.62
2023-05-15T13:26:22.030Z,36.11
2023-05-15T13:29:02.721Z,35.20
2023-05-15T13:31:42.441Z,35.59
2023-05-15T13:34:22.363Z,36.91
2023-05-15T13:37:06.769Z,38.25
2023-05-15T13:39:46.467Z,38.97
2023-05-15T13:42:26.087Z,39.73
2023-05-15T13:45:05.498Z,39.35
2023-05-15T13:47:45.095Z,39.95
2023-05-15T13:50:24.621Z,39.59
2023-05-15T13:53:09.198Z,39.53
2023-05-15T13:55:48.492Z,40.34
2023-05-15T13:58:27.852Z,41.56
2023-05-15T14:01:07.450Z,41.82
2023-05-15T14:03:46.843Z,42.17
2023-05-15T14:06:26.867Z,42.15
2023-05-15T14:09:11.398Z,42.97
2023-05-15T14:11:50.735Z,43.12
2023-05-15T14:14:30.216Z,42.74
2023-05-15T14:17:09.702Z,42.42
2023-05-15T14:19:49.184Z,43.07
2023-05-15T14:22:28.575Z,44.44
2023-05-15T14:25:14.673Z,45.75
2023-05-15T14:27:54.096Z,46.37
2023-05-15T14:30:33.364Z,46.59
2023-05-15T14:33:13.107Z,46.94
2023-05-15T14:35:52.404Z,47.00
2023-05-15T14:38:32.229Z,46.40
2023-05-15T14:41:16.645Z,47.26
2023-05-15T14:43:55.925Z,47.81
2023-05-15T14:46:35.445Z,48.86
2023-05-15T14:49:14.787Z,49.77
2023-05-15T14:51:54.018Z,49.77
2023-05-15T14:54:33.361Z,48.90
2023-05-15T14:57:21.450Z,48.57
2023-05-15T15:00:00.731Z,48.12
2023-05-15T15:02:40.097Z,47.77
2023-05-15T15:05:19.901Z,48.35
2023-05-15T15:08:07.600Z,48.67
2023-05-15T15:10:48.451Z,48.94
2023-05-15T15:13:32.861Z,49.63
2023-05-15T15:16:12.431Z,49.88
2023-05-15T15:18:51.763Z,49.65
2023-05-15T15:21:31.085Z,49.51
2023-05-15T15:24:10.699Z,49.55
2023-05-15T15:26:49.996Z,48.96
2023-05-15T15:29:34.416Z,49.48
2023-05-15T15:32:16.403Z,48.19
2023-05-15T15:34:55.738Z,47.68
2023-05-15T15:37:38.871Z,47.53
2023-05-15T15:40:18.326Z,46.31
2023-05-15T15:42:57.709Z,46.49
2023-05-15T15:45:42.380Z,46.80
2023-05-15T15:48:21.979Z,46.32
2023-05-15T15:51:01.245Z,44.73
2023-05-15T15:53:40.484Z,42.70
2023-05-15T15:56:19.745Z,41.85
2023-05-15T15:58:58.976Z,42.09
2023-05-15T16:01:43.781Z,42.27
2023-05-15T16:04:24.073Z,42.16
2023-05-15T16:07:03.343Z,42.87
2023-05-15T16:09:42.638Z,42.64
2023-05-15T16:12:21.929Z,43.26
2023-05-15T16:15:09.860Z,43.23
2023-05-15T16:18:05.248Z,44.38
2023-05-15T16:20:44.985Z,44.24
2023-05-15T16:23:24.299Z,44.93
2023-05-15T16:26:03.770Z,44.76
2023-05-15T16:28:43.734Z,44.75
2023-05-15T16:31:23.551Z,42.65
2023-05-15T16:34:08.024Z,43.42
2023-05-15T16:36:49.085Z,43.35
2023-05-15T16:39:28.485Z,43.30
2023-05-15T16:42:09.616Z,42.77
2023-05-15T16:44:49.023Z,43.54
2023-05-15T16:47:28.311Z,42.92
2023-05-15T16:50:13.561Z,43.31
2023-05-15T16:52:52.889Z,42.96
2023-05-15T16:55:32.495Z,43.30
2023-05-15T16:58:11.818Z,42.81
2023-05-15T17:00:51.657Z,43.18
2023-05-15T17:03:31.171Z,44.66
2023-05-15T17:06:15.667Z,45.08
2023-05-15T17:08:54.932Z,44.78
2023-05-15T17:11:34.192Z,44.99
2023-05-15T17:14:13.455Z,44.91
2023-05-15T17:16:52.756Z,44.78
2023-05-15T17:19:31.988Z,44.29
2023-05-15T17:22:16.303Z,45.50
2023-05-15T17:24:58.047Z,45.24
2023-05-15T17:27:40.884Z,45.97
2023-05-15T17:30:20.673Z,46.51
2023-05-15T17:33:00.681Z,46.99
2023-05-15T17:35:39.985Z,46.75
2023-05-15T17:38:24.298Z,45.41
2023-05-15T17:41:03.632Z,44.39
2023-05-15T17:43:42.878Z,43.76
2023-05-15T17:46:22.206Z,44.22
2023-05-15T17:49:01.863Z,44.08
2023-05-15T17:51:41.312Z,44.47
2023-05-15T17:54:25.888Z,44.31
2023-05-15T17:57:05.187Z,45.25
2023-05-15T17:59:45.206Z,45.18
2023-05-15T18:02:24.473Z,44.69
2023-05-15T18:05:03.705Z,46.29
2023-05-15T18:07:43.496Z,46.50
2023-05-15T18:10:27.927Z,47.75
2023-05-15T18:13:07.274Z,47.75
2023-05-15T18:15:47.014Z,47.46
2023-05-15T18:18:26.500Z,47.89
2023-05-15T18:21:06.703Z,48.63
2023-05-15T18:23:46.028Z,49.48
2023-05-15T18:26:32.277Z,49.49
2023-05-15T18:29:11.523Z,49.91
2023-05-15T18:31:51.070Z,50.07
2023-05-15T18:34:30.338Z,49.94
2023-05-15T18:37:09.633Z,50.13
2023-05-15T18:39:49.250Z,50.16
2023-05-15T18:42:34.591Z,51.29
2023-05-15T18:45:17.310Z,51.71
2023-05-15T18:47:56.731Z,53.15
2023-05-15T18:50:36.095Z,53.04
2023-05-15T18:53:15.425Z,52.38
2023-05-15T18:55:54.750Z,52.88
2023-05-15T18:58:39.062Z,52.30
2023-05-15T19:01:18.411Z,52.59
2023-05-15T19:03:57.740Z,52.89
2023-05-15T19:06:37.062Z,53.09
2023-05-15T19:09:16.543Z,53.63
2023-05-15T19:11:55.821Z,53.97
2023-05-15T19:14:40.782Z,53.54
2023-05-15T19:17:21.318Z,53.45
2023-05-15T19:20:00.864Z,53.73
2023-05-15T19:22:40.160Z,54.16
2023-05-15T19:25:19.473Z,54.44
2023-05-15T19:27:58.737Z,54.81
2023-05-15T19:30:43.087Z,54.96
2023-05-15T19:33:24.190Z,56.40
2023-05-15T19:36:03.714Z,57.24
2023-05-15T19:38:43.020Z,58.22
2023-05-15T19:41:22.780Z,58.82
2023-05-15T19:44:02.013Z,59.13
2023-05-15T19:46:47.803Z,59.26
2023-05-15T19:49:27.161Z,59.30
2023-05-15T19:52:08.800Z,59.22
2023-05-15T19:54:48.133Z,59.47
2023-05-15T19:57:27.358Z,59.81
2023-05-15T20:00:08.041Z,60.19
2023-05-15T20:02:52.546Z,59.79
2023-05-15T20:05:31.981Z,59.91
2023-05-15T20:08:11.293Z,59.32
2023-05-15T20:10:50.930Z,59.41
2023-05-15T20:13:30.890Z,59.68
2023-05-15T20:16:11.758Z,60.04
2023-05-15T20:18:56.521Z,60.41
2023-05-15T20:21:35.775Z,60.56
2023-05-15T20:24:16.991Z,61.00
2023-05-15T20:26:56.222Z,61.30
2023-05-15T20:29:35.560Z,61.84
2023-05-15T20:32:15.041Z,62.35
2023-05-15T20:34:59.587Z,62.43
2023-05-15T20:37:42.191Z,62.84
2023-05-15T20:40:24.313Z,62.94
2023-05-15T20:43:04.069Z,62.68
2023-05-15T20:45:43.454Z,62.69
2023-05-15T20:48:22.776Z,62.81
2023-05-15T20:51:07.145Z,63.14
2023-05-15T20:53:46.667Z,63.49
2023-05-15T20:56:26.985Z,63.67
2023-05-15T20:59:06.223Z,63.96
2023-05-15T21:01:45.502Z,64.48
2023-05-15T21:04:24.833Z,64.68
2023-05-15T21:07:09.790Z,64.64
2023-05-15T21:09:49.317Z,64.49
2023-05-15T21:12:28.676Z,64.31
2023-05-15T21:15:08.594Z,64.37
2023-05-15T21:17:47.870Z,64.53
2023-05-15T21:20:28.655Z,64.70
2023-05-15T21:23:13.185Z,65.02
2023-05-15T21:25:52.529Z,65.77
2023-05-15T21:28:33.513Z,65.85
2023-05-15T21:31:13.671Z,65.77
2023-05-15T21:33:52.908Z,65.83
2023-05-15T21:36:32.440Z,66.06
2023-05-15T21:39:16.826Z,66.09
2023-05-15T21:41:56.135Z,66.50
2023-05-15T21:44:35.403Z,66.72
2023-05-15T21:47:14.675Z,66.76
2023-05-15T21:49:53.971Z,66.78
2023-05-15T21:52:33.258Z,66.84
2023-05-15T21:55:18.412Z,66.69
2023-05-15T21:57:57.695Z,66.34
2023-05-15T22:00:37.079Z,66.28
2023-05-15T22:03:16.440Z,66.43
2023-05-15T22:05:56.446Z,66.68
2023-05-15T22:08:35.708Z,66.66
2023-05-15T22:11:20.054Z,66.76
2023-05-15T22:13:59.329Z,66.87
2023-05-15T22:16:38.656Z,67.36
2023-05-15T22:19:32.164Z,67.87
2023-05-15T22:22:12.708Z,68.17
2023-05-15T22:24:51.980Z,68.35
2023-05-15T22:27:36.337Z,68.63
2023-05-15T22:30:16.672Z,69.00
2023-05-15T22:32:56.001Z,69.18
2023-05-15T22:35:35.467Z,69.56
2023-05-15T22:38:14.837Z,69.79
2023-05-15T22:40:56.840Z,69.86
2023-05-15T22:43:41.213Z,69.79
2023-05-15T22:46:20.537Z,69.78
2023-05-15T22:49:00.303Z,69.80
2023-05-15T22:51:39.732Z,69.75
2023-05-15T22:54:23.116Z,69.67
2023-05-15T22:57:02.919Z,69.78
2023-05-15T22:59:47.316Z,69.87
2023-05-15T23:02:26.613Z,69.83
2023-05-15T23:05:05.898Z,69.91
2023-05-15T23:07:45.196Z,70.21
2023-05-15T23:10:24.828Z,70.55
2023-05-15T23:13:04.543Z,70.78
2023-05-15T23:15:48.882Z,71.05
2023-05-15T23:18:28.146Z,71.27
2023-05-15T23:21:07.648Z,71.40
2023-05-15T23:23:47.170Z,71.58
2023-05-15T23:26:27.164Z,72.01
2023-05-15T23:29:06.460Z,72.10
2023-05-15T23:31:50.907Z,72.11
2023-05-15T23:34:30.352Z,72.28
2023-05-15T23:37:09.640Z,72.49
2023-05-15T23:39:48.877Z,72.48
2023-05-15T23:42:28.933Z,72.44
2023-05-15T23:45:08.277Z,72.11
2023-05-15T23:47:52.828Z,72.06
2023-05-15T23:50:32.161Z,72.19
2023-05-15T23:53:12.198Z,72.68
2023-05-15T23:55:51.554Z,72.64
2023-05-15T23:58:30.832Z,72.44
